sensor_id;sensor_type;location;lat;lon;timestamp;P1;durP1;ratioP1;P2;durP2;ratioP2
66669;SDS011;53568;52.164;4.472;2024-01-30T00:02:16;18.76;;;18.58;;
66669;SDS011;53568;52.164;4.472;2024-01-30T00:04:42;19.38;;;19.22;;
66669;SDS011;53568;52.164;4.472;2024-01-30T00:07:07;19.26;;;19.00;;
66669;SDS011;53568;52.164;4.472;2024-01-30T00:09:33;18.55;;;18.46;;
66669;SDS011;53568;52.164;4.472;2024-01-30T00:11:59;18.47;;;18.47;;
66669;SDS011;53568;52.164;4.472;2024-01-30T00:14:24;17.91;;;17.86;;
66669;SDS011;53568;52.164;4.472;2024-01-30T00:16:50;17.94;;;17.72;;
66669;SDS011;53568;52.164;4.472;2024-01-30T00:19:16;17.95;;;17.88;;
66669;SDS011;53568;52.164;4.472;2024-01-30T00:21:42;18.50;;;18.12;;
66669;SDS011;53568;52.164;4.472;2024-01-30T00:24:08;17.83;;;17.51;;
66669;SDS011;53568;52.164;4.472;2024-01-30T00:26:33;18.00;;;17.99;;
66669;SDS011;53568;52.164;4.472;2024-01-30T00:28:59;18.00;;;17.99;;
66669;SDS011;53568;52.164;4.472;2024-01-30T00:31:24;17.79;;;17.73;;
66669;SDS011;53568;52.164;4.472;2024-01-30T00:33:50;17.72;;;17.66;;
66669;SDS011;53568;52.164;4.472;2024-01-30T00:36:15;17.79;;;17.48;;
66669;SDS011;53568;52.164;4.472;2024-01-30T00:38:41;17.07;;;16.84;;
66669;SDS011;53568;52.164;4.472;2024-01-30T00:41:07;17.25;;;17.16;;
66669;SDS011;53568;52.164;4.472;2024-01-30T00:43:33;17.49;;;17.35;;
66669;SDS011;53568;52.164;4.472;2024-01-30T00:45:59;17.12;;;17.11;;
66669;SDS011;53568;52.164;4.472;2024-01-30T00:48:24;16.06;;;16.04;;
66669;SDS011;53568;52.164;4.472;2024-01-30T00:50:50;16.53;;;16.53;;
66669;SDS011;53568;52.164;4.472;2024-01-30T00:53:16;16.30;;;16.30;;
66669;SDS011;53568;52.164;4.472;2024-01-30T00:55:41;16.27;;;16.27;;
66669;SDS011;53568;52.164;4.472;2024-01-30T00:58:06;16.88;;;16.87;;
66669;SDS011;53568;52.164;4.472;2024-01-30T01:00:32;16.83;;;16.72;;
66669;SDS011;53568;52.164;4.472;2024-01-30T01:02:58;17.10;;;17.00;;
66669;SDS011;53568;52.164;4.472;2024-01-30T01:05:24;16.47;;;16.46;;
66669;SDS011;53568;52.164;4.472;2024-01-30T01:07:50;16.54;;;16.51;;
66669;SDS011;53568;52.164;4.472;2024-01-30T01:10:18;16.40;;;16.34;;
66669;SDS011;53568;52.164;4.472;2024-01-30T01:12:44;15.91;;;15.85;;
66669;SDS011;53568;52.164;4.472;2024-01-30T01:15:10;16.28;;;16.26;;
66669;SDS011;53568;52.164;4.472;2024-01-30T01:17:37;16.17;;;16.08;;
66669;SDS011;53568;52.164;4.472;2024-01-30T01:20:03;16.62;;;16.56;;
66669;SDS011;53568;52.164;4.472;2024-01-30T01:22:31;16.35;;;16.29;;
66669;SDS011;53568;52.164;4.472;2024-01-30T01:24:58;16.56;;;16.44;;
66669;SDS011;53568;52.164;4.472;2024-01-30T01:27:24;16.48;;;16.47;;
66669;SDS011;53568;52.164;4.472;2024-01-30T01:29:50;16.67;;;16.66;;
66669;SDS011;53568;52.164;4.472;2024-01-30T01:32:15;16.45;;;16.42;;
66669;SDS011;53568;52.164;4.472;2024-01-30T01:34:41;16.17;;;16.16;;
66669;SDS011;53568;52.164;4.472;2024-01-30T01:37:06;16.50;;;16.50;;
66669;SDS011;53568;52.164;4.472;2024-01-30T01:39:32;16.68;;;16.60;;
66669;SDS011;53568;52.164;4.472;2024-01-30T01:41:58;16.22;;;16.14;;
66669;SDS011;53568;52.164;4.472;2024-01-30T01:44:23;16.43;;;16.39;;
66669;SDS011;53568;52.164;4.472;2024-01-30T01:46:49;16.29;;;16.29;;
66669;SDS011;53568;52.164;4.472;2024-01-30T01:49:17;16.02;;;16.02;;
66669;SDS011;53568;52.164;4.472;2024-01-30T01:51:44;16.29;;;16.29;;
66669;SDS011;53568;52.164;4.472;2024-01-30T01:54:12;16.31;;;16.28;;
66669;SDS011;53568;52.164;4.472;2024-01-30T01:56:39;16.54;;;16.51;;
66669;SDS011;53568;52.164;4.472;2024-01-30T01:59:07;16.18;;;16.18;;
66669;SDS011;53568;52.164;4.472;2024-01-30T02:01:34;15.97;;;15.93;;
66669;SDS011;53568;52.164;4.472;2024-01-30T02:04:02;16.40;;;16.29;;
66669;SDS011;53568;52.164;4.472;2024-01-30T02:06:27;16.00;;;15.92;;
66669;SDS011;53568;52.164;4.472;2024-01-30T02:08:53;15.90;;;15.90;;
66669;SDS011;53568;52.164;4.472;2024-01-30T02:11:19;16.23;;;16.23;;
66669;SDS011;53568;52.164;4.472;2024-01-30T02:13:45;16.51;;;16.42;;
66669;SDS011;53568;52.164;4.472;2024-01-30T02:16:10;16.31;;;16.23;;
66669;SDS011;53568;52.164;4.472;2024-01-30T02:18:36;15.76;;;15.74;;
66669;SDS011;53568;52.164;4.472;2024-01-30T02:21:07;15.81;;;15.81;;
66669;SDS011;53568;52.164;4.472;2024-01-30T02:23:33;16.09;;;16.07;;
66669;SDS011;53568;52.164;4.472;2024-01-30T02:25:59;16.11;;;16.10;;
66669;SDS011;53568;52.164;4.472;2024-01-30T02:28:25;16.40;;;16.36;;
66669;SDS011;53568;52.164;4.472;2024-01-30T02:30:52;15.68;;;15.67;;
66669;SDS011;53568;52.164;4.472;2024-01-30T02:33:18;16.12;;;16.08;;
66669;SDS011;53568;52.164;4.472;2024-01-30T02:35:43;15.90;;;15.87;;
66669;SDS011;53568;52.164;4.472;2024-01-30T02:38:09;16.08;;;16.05;;
66669;SDS011;53568;52.164;4.472;2024-01-30T02:40:34;15.52;;;15.52;;
66669;SDS011;53568;52.164;4.472;2024-01-30T02:43:01;15.67;;;15.62;;
66669;SDS011;53568;52.164;4.472;2024-01-30T02:45:27;15.59;;;15.55;;
66669;SDS011;53568;52.164;4.472;2024-01-30T02:47:53;15.83;;;15.72;;
66669;SDS011;53568;52.164;4.472;2024-01-30T02:50:18;15.92;;;15.86;;
66669;SDS011;53568;52.164;4.472;2024-01-30T02:52:44;15.71;;;15.71;;
66669;SDS011;53568;52.164;4.472;2024-01-30T02:55:10;15.52;;;15.46;;
66669;SDS011;53568;52.164;4.472;2024-01-30T02:57:36;15.68;;;15.67;;
66669;SDS011;53568;52.164;4.472;2024-01-30T03:00:01;15.66;;;15.66;;
66669;SDS011;53568;52.164;4.472;2024-01-30T03:02:29;15.38;;;15.37;;
66669;SDS011;53568;52.164;4.472;2024-01-30T03:04:54;15.93;;;15.91;;
66669;SDS011;53568;52.164;4.472;2024-01-30T03:07:20;15.72;;;15.72;;
66669;SDS011;53568;52.164;4.472;2024-01-30T03:09:45;15.75;;;15.72;;
66669;SDS011;53568;52.164;4.472;2024-01-30T03:12:11;15.51;;;15.43;;
66669;SDS011;53568;52.164;4.472;2024-01-30T03:14:36;15.40;;;15.32;;
66669;SDS011;53568;52.164;4.472;2024-01-30T03:17:02;15.21;;;15.21;;
66669;SDS011;53568;52.164;4.472;2024-01-30T03:19:28;15.48;;;15.39;;
66669;SDS011;53568;52.164;4.472;2024-01-30T03:21:53;15.06;;;15.03;;
66669;SDS011;53568;52.164;4.472;2024-01-30T03:24:19;15.26;;;15.25;;
66669;SDS011;53568;52.164;4.472;2024-01-30T03:26:45;14.97;;;14.97;;
66669;SDS011;53568;52.164;4.472;2024-01-30T03:29:11;15.08;;;15.02;;
66669;SDS011;53568;52.164;4.472;2024-01-30T03:31:36;15.03;;;14.90;;
66669;SDS011;53568;52.164;4.472;2024-01-30T03:34:02;15.40;;;15.37;;
66669;SDS011;53568;52.164;4.472;2024-01-30T03:36:28;14.80;;;14.77;;
66669;SDS011;53568;52.164;4.472;2024-01-30T03:38:53;14.87;;;14.73;;
66669;SDS011;53568;52.164;4.472;2024-01-30T03:41:19;15.48;;;15.46;;
66669;SDS011;53568;52.164;4.472;2024-01-30T03:43:45;14.76;;;14.76;;
66669;SDS011;53568;52.164;4.472;2024-01-30T03:46:11;15.33;;;15.28;;
66669;SDS011;53568;52.164;4.472;2024-01-30T03:48:38;14.89;;;14.89;;
66669;SDS011;53568;52.164;4.472;2024-01-30T03:51:04;15.43;;;15.42;;
66669;SDS011;53568;52.164;4.472;2024-01-30T03:53:30;15.23;;;15.20;;
66669;SDS011;53568;52.164;4.472;2024-01-30T03:55:56;16.05;;;15.92;;
66669;SDS011;53568;52.164;4.472;2024-01-30T03:58:21;15.14;;;15.14;;
66669;SDS011;53568;52.164;4.472;2024-01-30T04:00:47;15.14;;;15.14;;
66669;SDS011;53568;52.164;4.472;2024-01-30T04:03:14;15.42;;;15.42;;
66669;SDS011;53568;52.164;4.472;2024-01-30T04:05:40;15.64;;;15.63;;
66669;SDS011;53568;52.164;4.472;2024-01-30T04:08:06;15.67;;;15.48;;
66669;SDS011;53568;52.164;4.472;2024-01-30T04:10:32;15.35;;;15.31;;
66669;SDS011;53568;52.164;4.472;2024-01-30T04:12:58;15.34;;;15.34;;
66669;SDS011;53568;52.164;4.472;2024-01-30T04:15:24;15.51;;;15.46;;
66669;SDS011;53568;52.164;4.472;2024-01-30T04:17:50;14.89;;;14.88;;
66669;SDS011;53568;52.164;4.472;2024-01-30T04:20:16;15.82;;;15.80;;
66669;SDS011;53568;52.164;4.472;2024-01-30T04:22:45;15.10;;;15.10;;
66669;SDS011;53568;52.164;4.472;2024-01-30T04:25:11;14.90;;;14.89;;
66669;SDS011;53568;52.164;4.472;2024-01-30T04:27:38;15.30;;;15.30;;
66669;SDS011;53568;52.164;4.472;2024-01-30T04:30:04;14.97;;;14.97;;
66669;SDS011;53568;52.164;4.472;2024-01-30T04:32:30;15.15;;;15.13;;
66669;SDS011;53568;52.164;4.472;2024-01-30T04:34:55;14.94;;;14.91;;
66669;SDS011;53568;52.164;4.472;2024-01-30T04:37:21;14.82;;;14.82;;
66669;SDS011;53568;52.164;4.472;2024-01-30T04:39:46;14.89;;;14.88;;
66669;SDS011;53568;52.164;4.472;2024-01-30T04:42:12;15.00;;;15.00;;
66669;SDS011;53568;52.164;4.472;2024-01-30T04:44:37;15.20;;;15.20;;
66669;SDS011;53568;52.164;4.472;2024-01-30T04:47:03;14.48;;;14.43;;
66669;SDS011;53568;52.164;4.472;2024-01-30T04:49:31;14.77;;;14.75;;
66669;SDS011;53568;52.164;4.472;2024-01-30T04:51:56;14.71;;;14.52;;
66669;SDS011;53568;52.164;4.472;2024-01-30T04:54:23;14.80;;;14.64;;
66669;SDS011;53568;52.164;4.472;2024-01-30T04:56:48;15.11;;;14.92;;
66669;SDS011;53568;52.164;4.472;2024-01-30T04:59:14;14.04;;;14.04;;
66669;SDS011;53568;52.164;4.472;2024-01-30T05:01:39;14.32;;;14.32;;
66669;SDS011;53568;52.164;4.472;2024-01-30T05:04:07;14.90;;;14.73;;
66669;SDS011;53568;52.164;4.472;2024-01-30T05:06:33;14.27;;;14.15;;
66669;SDS011;53568;52.164;4.472;2024-01-30T05:08:58;14.66;;;14.47;;
66669;SDS011;53568;52.164;4.472;2024-01-30T05:11:23;14.47;;;14.47;;
66669;SDS011;53568;52.164;4.472;2024-01-30T05:13:49;14.42;;;14.42;;
66669;SDS011;53568;52.164;4.472;2024-01-30T05:16:14;14.04;;;14.03;;
66669;SDS011;53568;52.164;4.472;2024-01-30T05:18:40;14.35;;;14.34;;
66669;SDS011;53568;52.164;4.472;2024-01-30T05:21:05;14.30;;;14.28;;
66669;SDS011;53568;52.164;4.472;2024-01-30T05:23:31;13.88;;;13.81;;
66669;SDS011;53568;52.164;4.472;2024-01-30T05:25:56;14.38;;;14.28;;
66669;SDS011;53568;52.164;4.472;2024-01-30T05:28:22;14.86;;;14.71;;
66669;SDS011;53568;52.164;4.472;2024-01-30T05:30:47;14.51;;;14.35;;
66669;SDS011;53568;52.164;4.472;2024-01-30T05:33:13;14.06;;;14.01;;
66669;SDS011;53568;52.164;4.472;2024-01-30T05:35:39;14.50;;;14.48;;
66669;SDS011;53568;52.164;4.472;2024-01-30T05:38:04;13.98;;;13.98;;
66669;SDS011;53568;52.164;4.472;2024-01-30T05:40:30;14.76;;;14.75;;
66669;SDS011;53568;52.164;4.472;2024-01-30T05:42:56;14.39;;;14.26;;
66669;SDS011;53568;52.164;4.472;2024-01-30T05:45:23;14.24;;;14.24;;
66669;SDS011;53568;52.164;4.472;2024-01-30T05:47:49;14.23;;;14.22;;
66669;SDS011;53568;52.164;4.472;2024-01-30T05:50:14;14.64;;;14.55;;
66669;SDS011;53568;52.164;4.472;2024-01-30T05:52:40;14.65;;;14.64;;
66669;SDS011;53568;52.164;4.472;2024-01-30T05:55:05;14.59;;;14.55;;
66669;SDS011;53568;52.164;4.472;2024-01-30T05:57:31;13.80;;;13.79;;
66669;SDS011;53568;52.164;4.472;2024-01-30T05:59:57;14.18;;;14.13;;
66669;SDS011;53568;52.164;4.472;2024-01-30T06:02:22;13.80;;;13.75;;
66669;SDS011;53568;52.164;4.472;2024-01-30T06:04:48;14.76;;;14.68;;
66669;SDS011;53568;52.164;4.472;2024-01-30T06:07:13;14.95;;;14.86;;
66669;SDS011;53568;52.164;4.472;2024-01-30T06:09:39;14.81;;;14.73;;
66669;SDS011;53568;52.164;4.472;2024-01-30T06:12:06;14.56;;;14.28;;
66669;SDS011;53568;52.164;4.472;2024-01-30T06:14:31;14.23;;;14.16;;
66669;SDS011;53568;52.164;4.472;2024-01-30T06:16:58;14.42;;;14.42;;
66669;SDS011;53568;52.164;4.472;2024-01-30T06:19:24;14.16;;;14.16;;
66669;SDS011;53568;52.164;4.472;2024-01-30T06:21:50;13.74;;;13.70;;
66669;SDS011;53568;52.164;4.472;2024-01-30T06:24:15;14.14;;;14.13;;
66669;SDS011;53568;52.164;4.472;2024-01-30T06:26:40;13.69;;;13.67;;
66669;SDS011;53568;52.164;4.472;2024-01-30T06:29:06;14.09;;;14.09;;
66669;SDS011;53568;52.164;4.472;2024-01-30T06:31:32;14.11;;;14.11;;
66669;SDS011;53568;52.164;4.472;2024-01-30T06:33:58;14.29;;;14.28;;
66669;SDS011;53568;52.164;4.472;2024-01-30T06:36:23;14.64;;;14.52;;
66669;SDS011;53568;52.164;4.472;2024-01-30T06:38:49;14.56;;;14.48;;
66669;SDS011;53568;52.164;4.472;2024-01-30T06:41:14;14.09;;;14.03;;
66669;SDS011;53568;52.164;4.472;2024-01-30T06:43:40;14.62;;;14.62;;
66669;SDS011;53568;52.164;4.472;2024-01-30T06:46:06;14.71;;;14.71;;
66669;SDS011;53568;52.164;4.472;2024-01-30T06:48:31;13.99;;;13.98;;
66669;SDS011;53568;52.164;4.472;2024-01-30T06:50:57;14.66;;;14.66;;
66669;SDS011;53568;52.164;4.472;2024-01-30T06:53:23;14.07;;;14.07;;
66669;SDS011;53568;52.164;4.472;2024-01-30T06:55:48;14.43;;;14.43;;
66669;SDS011;53568;52.164;4.472;2024-01-30T06:58:14;14.52;;;14.49;;
66669;SDS011;53568;52.164;4.472;2024-01-30T07:00:39;14.32;;;14.21;;
66669;SDS011;53568;52.164;4.472;2024-01-30T07:03:05;14.14;;;14.07;;
66669;SDS011;53568;52.164;4.472;2024-01-30T07:05:31;14.49;;;14.48;;
66669;SDS011;53568;52.164;4.472;2024-01-30T07:07:57;14.36;;;14.23;;
66669;SDS011;53568;52.164;4.472;2024-01-30T07:10:22;14.15;;;14.14;;
66669;SDS011;53568;52.164;4.472;2024-01-30T07:12:48;13.94;;;13.93;;
66669;SDS011;53568;52.164;4.472;2024-01-30T07:15:13;13.82;;;13.82;;
66669;SDS011;53568;52.164;4.472;2024-01-30T07:17:42;14.37;;;14.37;;
66669;SDS011;53568;52.164;4.472;2024-01-30T07:20:07;14.42;;;14.37;;
66669;SDS011;53568;52.164;4.472;2024-01-30T07:22:34;13.78;;;13.78;;
66669;SDS011;53568;52.164;4.472;2024-01-30T07:25:00;13.55;;;13.51;;
66669;SDS011;53568;52.164;4.472;2024-01-30T07:27:26;14.36;;;14.30;;
66669;SDS011;53568;52.164;4.472;2024-01-30T07:29:51;13.73;;;13.60;;
66669;SDS011;53568;52.164;4.472;2024-01-30T07:32:17;13.92;;;13.86;;
66669;SDS011;53568;52.164;4.472;2024-01-30T07:34:43;13.92;;;13.92;;
66669;SDS011;53568;52.164;4.472;2024-01-30T07:37:09;13.93;;;13.93;;
66669;SDS011;53568;52.164;4.472;2024-01-30T07:39:35;14.02;;;13.95;;
66669;SDS011;53568;52.164;4.472;2024-01-30T07:42:01;14.64;;;14.60;;
66669;SDS011;53568;52.164;4.472;2024-01-30T07:44:27;14.33;;;14.32;;
66669;SDS011;53568;52.164;4.472;2024-01-30T07:46:52;14.65;;;14.55;;
66669;SDS011;53568;52.164;4.472;2024-01-30T07:49:18;14.70;;;14.55;;
66669;SDS011;53568;52.164;4.472;2024-01-30T07:51:43;14.42;;;14.38;;
66669;SDS011;53568;52.164;4.472;2024-01-30T07:54:19;14.26;;;14.22;;
66669;SDS011;53568;52.164;4.472;2024-01-30T07:56:44;14.59;;;14.58;;
66669;SDS011;53568;52.164;4.472;2024-01-30T07:59:10;15.21;;;15.19;;
66669;SDS011;53568;52.164;4.472;2024-01-30T08:01:37;14.55;;;14.55;;
66669;SDS011;53568;52.164;4.472;2024-01-30T08:04:03;14.92;;;14.91;;
66669;SDS011;53568;52.164;4.472;2024-01-30T08:06:28;15.03;;;15.01;;
66669;SDS011;53568;52.164;4.472;2024-01-30T08:08:54;14.75;;;14.66;;
66669;SDS011;53568;52.164;4.472;2024-01-30T08:11:20;14.25;;;14.19;;
66669;SDS011;53568;52.164;4.472;2024-01-30T08:13:51;14.67;;;14.65;;
66669;SDS011;53568;52.164;4.472;2024-01-30T08:16:17;15.29;;;15.21;;
66669;SDS011;53568;52.164;4.472;2024-01-30T08:18:43;14.87;;;14.85;;
66669;SDS011;53568;52.164;4.472;2024-01-30T08:21:08;15.29;;;15.25;;
66669;SDS011;53568;52.164;4.472;2024-01-30T08:23:34;15.68;;;15.68;;
66669;SDS011;53568;52.164;4.472;2024-01-30T08:26:00;15.29;;;15.29;;
66669;SDS011;53568;52.164;4.472;2024-01-30T08:28:25;14.70;;;14.70;;
66669;SDS011;53568;52.164;4.472;2024-01-30T08:30:51;15.52;;;15.51;;
66669;SDS011;53568;52.164;4.472;2024-01-30T08:33:17;15.45;;;15.37;;
66669;SDS011;53568;52.164;4.472;2024-01-30T08:35:42;15.67;;;15.67;;
66669;SDS011;53568;52.164;4.472;2024-01-30T08:38:08;15.68;;;15.68;;
66669;SDS011;53568;52.164;4.472;2024-01-30T08:40:33;16.07;;;16.06;;
66669;SDS011;53568;52.164;4.472;2024-01-30T08:43:00;15.62;;;15.60;;
66669;SDS011;53568;52.164;4.472;2024-01-30T08:45:25;16.08;;;16.05;;
66669;SDS011;53568;52.164;4.472;2024-01-30T08:47:51;16.61;;;16.61;;
66669;SDS011;53568;52.164;4.472;2024-01-30T08:50:16;16.64;;;16.63;;
66669;SDS011;53568;52.164;4.472;2024-01-30T08:52:42;15.86;;;15.86;;
66669;SDS011;53568;52.164;4.472;2024-01-30T08:55:07;17.15;;;17.13;;
66669;SDS011;53568;52.164;4.472;2024-01-30T08:57:33;17.64;;;17.64;;
66669;SDS011;53568;52.164;4.472;2024-01-30T08:59:58;17.39;;;17.39;;
66669;SDS011;53568;52.164;4.472;2024-01-30T09:02:24;18.41;;;18.40;;
66669;SDS011;53568;52.164;4.472;2024-01-30T09:04:50;18.38;;;18.38;;
66669;SDS011;53568;52.164;4.472;2024-01-30T09:07:15;40.04;;;33.48;;
66669;SDS011;53568;52.164;4.472;2024-01-30T09:09:41;23.37;;;22.46;;
66669;SDS011;53568;52.164;4.472;2024-01-30T09:12:07;18.03;;;18.03;;
66669;SDS011;53568;52.164;4.472;2024-01-30T09:14:35;17.10;;;17.10;;
66669;SDS011;53568;52.164;4.472;2024-01-30T09:17:01;15.07;;;15.07;;
66669;SDS011;53568;52.164;4.472;2024-01-30T09:19:28;15.25;;;15.25;;
66669;SDS011;53568;52.164;4.472;2024-01-30T09:21:53;13.62;;;13.62;;
66669;SDS011;53568;52.164;4.472;2024-01-30T09:24:19;13.77;;;13.77;;
66669;SDS011;53568;52.164;4.472;2024-01-30T09:26:45;15.28;;;15.27;;
66669;SDS011;53568;52.164;4.472;2024-01-30T09:29:10;13.89;;;13.86;;
66669;SDS011;53568;52.164;4.472;2024-01-30T09:31:36;7.54;;;7.49;;
66669;SDS011;53568;52.164;4.472;2024-01-30T09:34:01;6.43;;;6.23;;
66669;SDS011;53568;52.164;4.472;2024-01-30T09:36:27;6.13;;;5.88;;
66669;SDS011;53568;52.164;4.472;2024-01-30T09:38:52;5.73;;;5.49;;
66669;SDS011;53568;52.164;4.472;2024-01-30T09:41:18;5.12;;;4.82;;
66669;SDS011;53568;52.164;4.472;2024-01-30T09:43:47;4.45;;;4.08;;
66669;SDS011;53568;52.164;4.472;2024-01-30T09:46:16;4.62;;;4.05;;
66669;SDS011;53568;52.164;4.472;2024-01-30T09:48:48;4.37;;;3.73;;
66669;SDS011;53568;52.164;4.472;2024-01-30T09:51:15;4.22;;;3.59;;
66669;SDS011;53568;52.164;4.472;2024-01-30T09:53:42;3.57;;;2.98;;
66669;SDS011;53568;52.164;4.472;2024-01-30T09:56:09;3.97;;;3.21;;
66669;SDS011;53568;52.164;4.472;2024-01-30T09:58:36;3.77;;;3.02;;
66669;SDS011;53568;52.164;4.472;2024-01-30T10:01:01;3.87;;;3.10;;
66669;SDS011;53568;52.164;4.472;2024-01-30T10:03:27;3.47;;;2.79;;
66669;SDS011;53568;52.164;4.472;2024-01-30T10:05:53;3.33;;;2.66;;
66669;SDS011;53568;52.164;4.472;2024-01-30T10:08:21;3.02;;;2.47;;
66669;SDS011;53568;52.164;4.472;2024-01-30T10:10:47;3.06;;;2.47;;
66669;SDS011;53568;52.164;4.472;2024-01-30T10:13:13;2.99;;;2.37;;
66669;SDS011;53568;52.164;4.472;2024-01-30T10:15:39;2.92;;;2.30;;
66669;SDS011;53568;52.164;4.472;2024-01-30T10:18:05;2.42;;;1.84;;
66669;SDS011;53568;52.164;4.472;2024-01-30T10:20:32;2.81;;;2.12;;
66669;SDS011;53568;52.164;4.472;2024-01-30T10:22:58;3.46;;;2.49;;
66669;SDS011;53568;52.164;4.472;2024-01-30T10:25:25;3.00;;;2.09;;
66669;SDS011;53568;52.164;4.472;2024-01-30T10:27:54;3.25;;;2.27;;
66669;SDS011;53568;52.164;4.472;2024-01-30T10:30:24;2.78;;;1.95;;
66669;SDS011;53568;52.164;4.472;2024-01-30T10:32:50;3.00;;;2.05;;
66669;SDS011;53568;52.164;4.472;2024-01-30T10:35:16;3.23;;;2.17;;
66669;SDS011;53568;52.164;4.472;2024-01-30T10:37:48;3.60;;;2.41;;
66669;SDS011;53568;52.164;4.472;2024-01-30T10:40:14;3.41;;;2.33;;
66669;SDS011;53568;52.164;4.472;2024-01-30T10:42:44;3.32;;;2.22;;
66669;SDS011;53568;52.164;4.472;2024-01-30T10:45:11;4.09;;;2.73;;
66669;SDS011;53568;52.164;4.472;2024-01-30T10:47:39;3.95;;;2.67;;
66669;SDS011;53568;52.164;4.472;2024-01-30T10:50:08;4.11;;;2.75;;
66669;SDS011;53568;52.164;4.472;2024-01-30T10:52:35;4.41;;;2.90;;
66669;SDS011;53568;52.164;4.472;2024-01-30T10:55:03;4.25;;;2.83;;
66669;SDS011;53568;52.164;4.472;2024-01-30T10:57:31;3.99;;;2.66;;
66669;SDS011;53568;52.164;4.472;2024-01-30T11:00:00;3.86;;;2.63;;
66669;SDS011;53568;52.164;4.472;2024-01-30T11:02:30;4.54;;;3.02;;
66669;SDS011;53568;52.164;4.472;2024-01-30T11:04:58;4.74;;;3.12;;
66669;SDS011;53568;52.164;4.472;2024-01-30T11:07:28;4.76;;;3.16;;
66669;SDS011;53568;52.164;4.472;2024-01-30T11:12:26;5.44;;;3.55;;
66669;SDS011;53568;52.164;4.472;2024-01-30T11:15:02;5.58;;;3.63;;
66669;SDS011;53568;52.164;4.472;2024-01-30T11:17:44;5.68;;;3.79;;
66669;SDS011;53568;52.164;4.472;2024-01-30T11:20:18;4.96;;;3.34;;
66669;SDS011;53568;52.164;4.472;2024-01-30T11:22:51;5.41;;;3.59;;
66669;SDS011;53568;52.164;4.472;2024-01-30T11:25:19;5.27;;;3.42;;
66669;SDS011;53568;52.164;4.472;2024-01-30T11:27:46;5.38;;;3.54;;
66669;SDS011;53568;52.164;4.472;2024-01-30T11:30:21;4.57;;;3.03;;
66669;SDS011;53568;52.164;4.472;2024-01-30T11:35:37;4.75;;;3.34;;
66669;SDS011;53568;52.164;4.472;2024-01-30T11:38:09;4.72;;;3.34;;
66669;SDS011;53568;52.164;4.472;2024-01-30T11:40:37;4.97;;;3.49;;
66669;SDS011;53568;52.164;4.472;2024-01-30T11:43:04;5.00;;;3.37;;
66669;SDS011;53568;52.164;4.472;2024-01-30T11:45:31;6.42;;;4.27;;
66669;SDS011;53568;52.164;4.472;2024-01-30T11:47:57;6.02;;;4.04;;
66669;SDS011;53568;52.164;4.472;2024-01-30T11:50:25;5.21;;;3.44;;
66669;SDS011;53568;52.164;4.472;2024-01-30T11:52:51;5.39;;;3.65;;
66669;SDS011;53568;52.164;4.472;2024-01-30T11:55:16;5.17;;;3.57;;
66669;SDS011;53568;52.164;4.472;2024-01-30T11:57:43;4.76;;;3.36;;
66669;SDS011;53568;52.164;4.472;2024-01-30T12:00:15;5.03;;;3.55;;
66669;SDS011;53568;52.164;4.472;2024-01-30T12:02:43;5.35;;;3.77;;
66669;SDS011;53568;52.164;4.472;2024-01-30T12:05:13;5.28;;;3.77;;
66669;SDS011;53568;52.164;4.472;2024-01-30T12:07:39;4.77;;;3.49;;
66669;SDS011;53568;52.164;4.472;2024-01-30T12:10:05;5.05;;;3.64;;
66669;SDS011;53568;52.164;4.472;2024-01-30T12:12:30;4.77;;;3.47;;
66669;SDS011;53568;52.164;4.472;2024-01-30T12:14:56;4.50;;;3.37;;
66669;SDS011;53568;52.164;4.472;2024-01-30T12:17:30;5.00;;;3.76;;
66669;SDS011;53568;52.164;4.472;2024-01-30T12:20:04;4.65;;;3.47;;
66669;SDS011;53568;52.164;4.472;2024-01-30T12:22:36;5.67;;;4.16;;
66669;SDS011;53568;52.164;4.472;2024-01-30T12:27:39;5.05;;;3.75;;
66669;SDS011;53568;52.164;4.472;2024-01-30T12:30:17;4.57;;;3.48;;
66669;SDS011;53568;52.164;4.472;2024-01-30T12:32:45;4.96;;;3.74;;
66669;SDS011;53568;52.164;4.472;2024-01-30T12:35:13;4.84;;;3.60;;
66669;SDS011;53568;52.164;4.472;2024-01-30T12:37:40;4.81;;;3.60;;
66669;SDS011;53568;52.164;4.472;2024-01-30T12:40:08;4.61;;;3.50;;
66669;SDS011;53568;52.164;4.472;2024-01-30T12:42:34;4.39;;;3.38;;
66669;SDS011;53568;52.164;4.472;2024-01-30T12:45:02;4.43;;;3.44;;
66669;SDS011;53568;52.164;4.472;2024-01-30T12:47:29;4.03;;;3.22;;
66669;SDS011;53568;52.164;4.472;2024-01-30T12:49:54;3.51;;;2.82;;
66669;SDS011;53568;52.164;4.472;2024-01-30T12:52:20;3.53;;;2.85;;
66669;SDS011;53568;52.164;4.472;2024-01-30T12:54:47;3.55;;;2.92;;
66669;SDS011;53568;52.164;4.472;2024-01-30T12:57:13;3.58;;;3.04;;
66669;SDS011;53568;52.164;4.472;2024-01-30T12:59:39;3.92;;;3.44;;
66669;SDS011;53568;52.164;4.472;2024-01-30T13:02:04;3.99;;;3.65;;
66669;SDS011;53568;52.164;4.472;2024-01-30T13:04:32;3.96;;;3.71;;
66669;SDS011;53568;52.164;4.472;2024-01-30T13:06:58;3.85;;;3.66;;
66669;SDS011;53568;52.164;4.472;2024-01-30T13:09:23;4.00;;;3.83;;
66669;SDS011;53568;52.164;4.472;2024-01-30T13:11:49;4.05;;;3.96;;
66669;SDS011;53568;52.164;4.472;2024-01-30T13:14:16;3.71;;;3.57;;
66669;SDS011;53568;52.164;4.472;2024-01-30T13:16:42;3.87;;;3.73;;
66669;SDS011;53568;52.164;4.472;2024-01-30T13:19:08;3.93;;;3.81;;
66669;SDS011;53568;52.164;4.472;2024-01-30T13:21:34;3.85;;;3.77;;
66669;SDS011;53568;52.164;4.472;2024-01-30T13:23:59;4.21;;;4.16;;
66669;SDS011;53568;52.164;4.472;2024-01-30T13:26:25;3.95;;;3.92;;
66669;SDS011;53568;52.164;4.472;2024-01-30T13:28:51;4.04;;;4.02;;
66669;SDS011;53568;52.164;4.472;2024-01-30T13:31:16;3.98;;;3.87;;
66669;SDS011;53568;52.164;4.472;2024-01-30T13:33:43;4.06;;;3.96;;
66669;SDS011;53568;52.164;4.472;2024-01-30T13:36:10;4.01;;;3.93;;
66669;SDS011;53568;52.164;4.472;2024-01-30T13:38:36;3.91;;;3.85;;
66669;SDS011;53568;52.164;4.472;2024-01-30T13:41:02;3.75;;;3.66;;
66669;SDS011;53568;52.164;4.472;2024-01-30T13:43:28;3.81;;;3.70;;
66669;SDS011;53568;52.164;4.472;2024-01-30T13:45:54;3.68;;;3.61;;
66669;SDS011;53568;52.164;4.472;2024-01-30T13:48:20;3.91;;;3.85;;
66669;SDS011;53568;52.164;4.472;2024-01-30T13:50:45;4.39;;;4.33;;
66669;SDS011;53568;52.164;4.472;2024-01-30T13:53:11;4.44;;;4.33;;
66669;SDS011;53568;52.164;4.472;2024-01-30T13:55:37;4.42;;;4.30;;
66669;SDS011;53568;52.164;4.472;2024-01-30T13:58:03;4.17;;;4.06;;
66669;SDS011;53568;52.164;4.472;2024-01-30T14:00:29;4.72;;;4.49;;
66669;SDS011;53568;52.164;4.472;2024-01-30T14:02:54;4.84;;;4.63;;
66669;SDS011;53568;52.164;4.472;2024-01-30T14:05:20;4.79;;;4.50;;
66669;SDS011;53568;52.164;4.472;2024-01-30T14:07:46;3.93;;;3.76;;
66669;SDS011;53568;52.164;4.472;2024-01-30T14:10:12;3.79;;;3.68;;
66669;SDS011;53568;52.164;4.472;2024-01-30T14:12:38;3.97;;;3.86;;
66669;SDS011;53568;52.164;4.472;2024-01-30T14:15:04;3.79;;;3.69;;
66669;SDS011;53568;52.164;4.472;2024-01-30T14:17:30;3.26;;;3.21;;
66669;SDS011;53568;52.164;4.472;2024-01-30T14:19:55;3.69;;;3.69;;
66669;SDS011;53568;52.164;4.472;2024-01-30T14:22:21;3.96;;;3.94;;
66669;SDS011;53568;52.164;4.472;2024-01-30T14:24:47;3.93;;;3.89;;
66669;SDS011;53568;52.164;4.472;2024-01-30T14:27:12;4.23;;;4.19;;
66669;SDS011;53568;52.164;4.472;2024-01-30T14:29:38;3.85;;;3.80;;
66669;SDS011;53568;52.164;4.472;2024-01-30T14:32:04;4.25;;;4.20;;
66669;SDS011;53568;52.164;4.472;2024-01-30T14:34:30;4.08;;;4.03;;